Time;durP1;ratioP1;P1;durP2;ratioP2;P2;SDS_P1;SDS_P2;PMS_P1;PMS_P2;Temp;Humidity;BMP_temperature;BMP_pressure;BME280_temperature;BME280_humidity;BME280_pressure;Samples;Min_cycle;Max_cycle;Signal;HPM_P1;HPM_P2
2023/05/18 00:01:02;;;;;;;8.57;2.50;;;8.20;99.90;;;;;;5096436;28;20183;-49
2023/05/18 00:03:28;;;;;;;4.70;2.37;;;8.10;99.90;;;;;;5095917;28;20678;-49
2023/05/18 00:05:56;;;;;;;6.47;2.53;;;8.20;99.90;;;;;;5096150;28;20206;-48
2023/05/18 00:08:22;;;;;;;6.93;2.27;;;8.10;99.90;;;;;;5096220;28;20183;-48
2023/05/18 00:10:47;;;;;;;10.27;2.70;;;8.10;99.90;;;;;;5096190;28;20175;-48
2023/05/18 00:13:13;;;;;;;7.73;2.17;;;8.00;99.90;;;;;;5095824;28;20557;-47
2023/05/18 00:15:39;;;;;;;5.13;2.60;;;8.00;99.90;;;;;;5095841;28;20179;-48
2023/05/18 00:18:05;;;;;;;8.20;2.00;;;8.00;99.90;;;;;;5096115;28;20575;-48
2023/05/18 00:20:31;;;;;;;11.00;2.13;;;8.00;99.90;;;;;;5095771;28;20261;-48
2023/05/18 00:22:57;;;;;;;8.63;2.43;;;8.00;99.90;;;;;;5095913;28;20290;-47
2023/05/18 00:25:22;;;;;;;8.20;2.50;;;8.00;99.90;;;;;;5095934;28;20180;-48
2023/05/18 00:27:50;;;;;;;4.23;2.10;;;7.90;99.90;;;;;;5096377;28;20561;-46
2023/05/18 00:30:16;;;;;;;6.13;2.20;;;7.90;99.90;;;;;;5095903;28;20175;-48
2023/05/18 00:32:41;;;;;;;8.13;2.70;;;7.90;99.90;;;;;;5095668;28;20281;-48
2023/05/18 00:35:07;;;;;;;9.63;2.13;;;7.90;99.90;;;;;;5095360;28;20167;-47
2023/05/18 00:37:32;;;;;;;9.07;3.00;;;7.90;99.90;;;;;;5095638;28;20554;-48
2023/05/18 00:39:58;;;;;;;7.83;2.40;;;7.80;99.90;;;;;;5095180;28;20198;-48
2023/05/18 00:42:24;;;;;;;8.67;2.40;;;7.80;99.90;;;;;;5094097;28;20183;-49
2023/05/18 00:44:49;;;;;;;6.67;2.60;;;7.80;99.90;;;;;;5095386;28;20200;-49
2023/05/18 00:47:17;;;;;;;11.10;2.30;;;7.80;99.90;;;;;;5093801;28;20207;-50
2023/05/18 00:49:42;;;;;;;8.67;2.47;;;7.70;99.90;;;;;;5095424;28;20232;-49
2023/05/18 00:52:08;;;;;;;8.07;2.77;;;7.70;99.90;;;;;;5095114;28;20635;-47
2023/05/18 00:54:34;;;;;;;12.03;2.60;;;7.70;99.90;;;;;;5095123;28;20191;-50
2023/05/18 00:57:00;;;;;;;6.67;2.33;;;7.60;99.90;;;;;;5095258;28;20179;-50
2023/05/18 00:59:27;;;;;;;8.83;2.30;;;7.60;99.90;;;;;;5094846;28;20184;-50
2023/05/18 01:01:53;;;;;;;10.17;2.73;;;7.60;99.90;;;;;;5093687;28;20265;-48
2023/05/18 01:04:20;;;;;;;8.87;2.83;;;7.50;99.90;;;;;;5094869;28;20706;-49
2023/05/18 01:06:46;;;;;;;7.67;2.53;;;7.40;99.90;;;;;;5094914;28;20214;-47
2023/05/18 01:09:13;;;;;;;6.57;2.60;;;7.40;99.90;;;;;;5094866;28;20643;-50
2023/05/18 01:11:47;;;;;;;7.97;2.63;;;7.30;99.90;;;;;;5095060;28;20199;-49
2023/05/18 01:14:21;;;;;;;12.13;2.93;;;7.30;99.90;;;;;;5094552;28;20199;-48
2023/05/18 01:16:55;;;;;;;10.63;2.87;;;7.30;99.90;;;;;;5094921;28;20236;-47
2023/05/18 01:19:30;;;;;;;6.70;2.37;;;7.20;99.90;;;;;;5094896;28;20166;-49
2023/05/18 01:22:07;;;;;;;6.70;2.33;;;7.10;99.90;;;;;;5094787;28;20166;-49
2023/05/18 01:24:41;;;;;;;15.20;3.37;;;7.10;99.90;;;;;;5093131;28;20236;-49
2023/05/18 01:27:08;;;;;;;7.60;2.33;;;7.10;99.90;;;;;;5094642;28;20215;-48
2023/05/18 01:29:34;;;;;;;8.13;2.67;;;7.10;99.90;;;;;;5095147;28;20195;-49
2023/05/18 01:31:59;;;;;;;7.47;3.07;;;7.00;99.90;;;;;;5093764;28;20666;-48
2023/05/18 01:34:26;;;;;;;12.60;2.80;;;6.90;99.90;;;;;;5094238;28;20264;-48
2023/05/18 01:36:51;;;;;;;12.20;2.80;;;6.90;99.90;;;;;;5094533;28;20224;-48
2023/05/18 01:39:18;;;;;;;10.93;3.83;;;6.90;99.90;;;;;;5094112;28;20202;-46
2023/05/18 01:41:55;;;;;;;11.23;2.90;;;6.80;99.90;;;;;;5094725;28;20631;-47
2023/05/18 01:44:28;;;;;;;8.70;2.93;;;6.70;99.90;;;;;;5094066;28;20619;-47
2023/05/18 01:47:00;;;;;;;7.30;2.97;;;6.70;99.90;;;;;;5093985;28;20550;-46
2023/05/18 01:49:34;;;;;;;10.00;2.90;;;6.60;99.90;;;;;;5094237;28;20262;-48
2023/05/18 01:52:06;;;;;;;16.20;2.80;;;6.60;99.90;;;;;;5093979;28;20177;-47
2023/05/18 01:54:35;;;;;;;12.47;2.70;;;6.60;99.90;;;;;;5094413;28;20233;-49
2023/05/18 01:57:01;;;;;;;10.23;3.07;;;6.50;99.90;;;;;;5094029;28;20181;-50
2023/05/18 01:59:27;;;;;;;7.40;2.23;;;6.50;99.90;;;;;;5093868;28;20187;-47
2023/05/18 02:01:58;;;;;;;8.83;2.70;;;6.40;99.90;;;;;;5093870;28;20177;-48
2023/05/18 02:04:24;;;;;;;7.73;2.87;;;6.40;99.90;;;;;;5093968;28;20285;-49
2023/05/18 02:06:53;;;;;;;7.87;2.50;;;6.40;99.90;;;;;;5092408;28;20306;-48
2023/05/18 02:09:19;;;;;;;8.93;2.87;;;6.40;99.90;;;;;;5093969;28;20187;-48
2023/05/18 02:11:45;;;;;;;6.20;3.00;;;6.30;99.90;;;;;;5093930;28;20178;-49
2023/05/18 02:14:11;;;;;;;7.13;2.40;;;6.30;99.90;;;;;;5093462;28;20209;-48
2023/05/18 02:16:37;;;;;;;9.23;2.77;;;6.30;99.90;;;;;;5092499;28;20187;-49
2023/05/18 02:19:03;;;;;;;6.30;2.37;;;6.30;99.90;;;;;;5094262;28;20175;-49
2023/05/18 02:21:29;;;;;;;8.90;2.87;;;6.30;99.90;;;;;;5093821;28;20186;-48
2023/05/18 02:23:55;;;;;;;8.63;2.70;;;6.30;99.90;;;;;;5093473;28;20209;-47
2023/05/18 02:26:21;;;;;;;6.93;2.80;;;6.20;99.90;;;;;;5093714;28;20256;-48
2023/05/18 02:28:46;;;;;;;12.50;2.73;;;6.30;99.90;;;;;;5093469;28;20671;-48
2023/05/18 02:31:12;;;;;;;8.47;2.80;;;6.30;99.90;;;;;;5093648;28;20224;-47
2023/05/18 02:33:39;;;;;;;8.43;2.80;;;6.20;99.90;;;;;;5093697;28;20198;-48
2023/05/18 02:36:12;;;;;;;8.33;2.73;;;6.20;99.90;;;;;;5093643;28;20252;-48
2023/05/18 02:38:42;;;;;;;8.77;3.03;;;6.20;99.90;;;;;;5093499;28;20185;-48
2023/05/18 02:41:08;;;;;;;5.57;2.50;;;6.20;99.90;;;;;;5092805;28;20250;-50
2023/05/18 02:43:34;;;;;;;6.50;2.73;;;6.10;99.90;;;;;;5092998;28;20292;-49
2023/05/18 02:46:00;;;;;;;7.20;2.63;;;6.10;99.90;;;;;;5096106;28;20248;-48
2023/05/18 02:48:26;;;;;;;5.60;2.70;;;6.10;99.90;;;;;;5096311;28;20179;-47
2023/05/18 02:50:52;;;;;;;5.63;2.50;;;6.00;99.90;;;;;;5096109;28;20587;-47
2023/05/18 02:53:17;;;;;;;9.80;3.20;;;6.00;99.90;;;;;;5095961;28;20194;-48
2023/05/18 02:55:45;;;;;;;7.97;2.20;;;6.00;99.90;;;;;;5096247;28;20514;-49
2023/05/18 02:58:12;;;;;;;12.07;2.40;;;6.00;99.90;;;;;;5096201;28;20187;-47
2023/05/18 03:00:38;;;;;;;7.77;2.57;;;6.00;99.90;;;;;;5095937;28;20197;-49
2023/05/18 03:03:03;;;;;;;5.80;2.17;;;5.90;99.90;;;;;;5095808;28;20676;-49
2023/05/18 03:05:29;;;;;;;11.07;3.20;;;5.90;99.90;;;;;;5096250;28;20183;-49
2023/05/18 03:07:55;;;;;;;10.37;3.00;;;5.90;99.90;;;;;;5095873;28;20186;-48
2023/05/18 03:10:21;;;;;;;5.90;2.87;;;5.80;99.90;;;;;;5096329;28;20629;-49
2023/05/18 03:12:47;;;;;;;5.60;2.90;;;5.80;99.90;;;;;;5095898;28;20284;-49
2023/05/18 03:15:15;;;;;;;15.20;3.37;;;5.80;99.90;;;;;;5095549;28;20178;-48
2023/05/18 03:17:43;;;;;;;6.23;2.57;;;5.80;99.90;;;;;;5096213;28;20228;-49
2023/05/18 03:20:10;;;;;;;5.67;2.63;;;5.80;99.90;;;;;;5095836;28;20183;-47
2023/05/18 03:22:36;;;;;;;7.33;2.73;;;5.70;99.90;;;;;;5095447;28;20186;-49
2023/05/18 03:25:05;;;;;;;6.07;2.57;;;5.70;99.90;;;;;;5096583;28;20225;-49
2023/05/18 03:27:31;;;;;;;7.27;2.80;;;5.70;99.90;;;;;;5094227;28;20230;-48
2023/05/18 03:29:57;;;;;;;9.77;3.00;;;5.70;99.90;;;;;;5095984;28;20214;-48
2023/05/18 03:32:27;;;;;;;6.10;2.80;;;5.70;99.90;;;;;;5096376;28;20182;-48
2023/05/18 03:34:53;;;;;;;9.97;3.50;;;5.60;99.90;;;;;;5095790;28;20178;-48
2023/05/18 03:37:18;;;;;;;9.40;2.77;;;5.60;99.90;;;;;;5095344;28;20171;-47
2023/05/18 03:39:44;;;;;;;8.93;3.07;;;5.60;99.90;;;;;;5057922;28;1076948;-48
2023/05/18 03:42:10;;;;;;;8.43;3.00;;;5.50;99.90;;;;;;5096491;28;20183;-47
2023/05/18 03:44:36;;;;;;;10.63;3.30;;;5.60;99.90;;;;;;5095169;28;20188;-48
2023/05/18 03:47:01;;;;;;;7.13;2.80;;;5.50;99.90;;;;;;5096381;28;20215;-49
2023/05/18 03:49:28;;;;;;;8.37;2.90;;;5.50;99.90;;;;;;5096374;28;20187;-48
2023/05/18 03:51:55;;;;;;;8.87;2.97;;;5.50;99.90;;;;;;5096589;28;20181;-47
2023/05/18 03:54:21;;;;;;;8.87;2.80;;;5.50;99.90;;;;;;5094552;28;20283;-47
2023/05/18 03:56:47;;;;;;;9.53;4.23;;;5.50;99.90;;;;;;5096271;28;20283;-47
2023/05/18 03:59:12;;;;;;;12.20;5.57;;;5.40;99.90;;;;;;5096166;28;20664;-48
2023/05/18 04:01:41;;;;;;;8.17;4.07;;;5.40;99.90;;;;;;5096408;28;20187;-48
2023/05/18 04:04:07;;;;;;;9.70;4.63;;;5.40;99.90;;;;;;5096156;28;20262;-49
2023/05/18 04:06:34;;;;;;;10.90;4.50;;;5.40;99.90;;;;;;5096095;28;20223;-48
2023/05/18 04:09:03;;;;;;;16.50;4.20;;;5.40;99.90;;;;;;5096148;28;20183;-48
2023/05/18 04:11:30;;;;;;;12.47;2.93;;;5.40;99.90;;;;;;5096048;28;20228;-48
2023/05/18 04:13:56;;;;;;;7.33;3.40;;;5.50;99.90;;;;;;5095856;28;20574;-47
2023/05/18 04:16:23;;;;;;;12.87;3.50;;;5.40;99.90;;;;;;5094568;28;20184;-49
2023/05/18 04:18:48;;;;;;;6.93;3.13;;;5.50;99.90;;;;;;5095777;28;20184;-49
2023/05/18 04:21:14;;;;;;;8.03;2.97;;;5.50;99.90;;;;;;5095685;28;20211;-48
2023/05/18 04:23:40;;;;;;;9.60;3.50;;;5.50;99.90;;;;;;5095546;28;20212;-48
2023/05/18 04:26:07;;;;;;;7.17;3.13;;;5.50;99.90;;;;;;5096097;28;20214;-47
2023/05/18 04:28:33;;;;;;;9.90;3.73;;;5.60;99.90;;;;;;5095634;28;20261;-49
2023/05/18 04:31:00;;;;;;;9.00;3.30;;;5.60;99.90;;;;;;5095773;28;20613;-46
2023/05/18 04:33:27;;;;;;;7.87;3.20;;;5.60;99.90;;;;;;5094151;28;20224;-48
2023/05/18 04:35:54;;;;;;;10.00;3.60;;;5.70;99.90;;;;;;5095422;28;20610;-50
2023/05/18 04:38:22;;;;;;;9.00;3.27;;;5.70;99.90;;;;;;5095621;28;20592;-48
2023/05/18 04:40:49;;;;;;;5.90;3.10;;;5.70;99.90;;;;;;5095265;28;20191;-50
2023/05/18 04:43:16;;;;;;;9.00;3.60;;;5.80;99.90;;;;;;5110933;28;20575;-49
2023/05/18 04:45:45;;;;;;;11.57;5.37;;;5.80;99.90;;;;;;5095156;28;20280;-48
2023/05/18 04:48:11;;;;;;;12.23;6.13;;;5.80;99.90;;;;;;5095278;28;20166;-48
2023/05/18 04:50:37;;;;;;;10.83;6.10;;;5.90;99.90;;;;;;5095369;28;20183;-48
2023/05/18 04:53:06;;;;;;;11.60;5.57;;;6.00;99.90;;;;;;5095597;28;20248;-47
2023/05/18 04:55:32;;;;;;;15.47;6.63;;;6.00;99.90;;;;;;5095139;28;20232;-47
2023/05/18 04:57:59;;;;;;;15.63;6.70;;;6.10;99.90;;;;;;5095228;28;20292;-48
2023/05/18 05:00:27;;;;;;;13.73;6.93;;;6.10;99.90;;;;;;5095176;28;20170;-48
2023/05/18 05:02:53;;;;;;;15.00;7.73;;;6.20;99.90;;;;;;5094816;28;20275;-48
2023/05/18 05:05:20;;;;;;;12.17;5.70;;;6.20;99.90;;;;;;5094763;28;20636;-48
2023/05/18 05:07:46;;;;;;;13.33;6.23;;;6.30;99.90;;;;;;5094027;28;20567;-48
2023/05/18 05:10:11;;;;;;;10.30;5.13;;;6.40;99.90;;;;;;5094704;28;20177;-49
2023/05/18 05:12:38;;;;;;;12.87;5.17;;;6.50;99.90;;;;;;5095130;28;20208;-47
2023/05/18 05:15:04;;;;;;;14.23;4.70;;;6.50;99.90;;;;;;5094737;28;20180;-49
2023/05/18 05:17:29;;;;;;;13.80;4.43;;;6.60;99.90;;;;;;5094605;28;20188;-49
2023/05/18 05:19:55;;;;;;;10.23;3.80;;;6.60;99.90;;;;;;5094674;28;20171;-49
2023/05/18 05:22:20;;;;;;;13.93;4.03;;;6.70;99.90;;;;;;5094427;28;20176;-49
2023/05/18 05:24:46;;;;;;;11.90;4.50;;;6.70;99.90;;;;;;5094858;28;20516;-47
2023/05/18 05:27:12;;;;;;;8.57;3.97;;;6.80;99.90;;;;;;5094604;28;20194;-47
2023/05/18 05:29:37;;;;;;;13.17;4.33;;;6.90;99.90;;;;;;5094691;28;20281;-48
2023/05/18 05:32:04;;;;;;;11.00;4.60;;;6.90;99.90;;;;;;5094283;28;20251;-47
2023/05/18 05:34:29;;;;;;;9.27;4.57;;;7.00;99.90;;;;;;5094150;28;20237;-50
2023/05/18 05:36:55;;;;;;;8.93;4.23;;;7.10;99.90;;;;;;5094295;28;20555;-48
2023/05/18 05:39:21;;;;;;;12.13;4.50;;;7.10;99.90;;;;;;5094144;28;20693;-48
2023/05/18 05:41:46;;;;;;;12.23;4.40;;;7.10;99.90;;;;;;5094413;28;20219;-47
2023/05/18 05:44:12;;;;;;;11.37;4.10;;;7.20;99.90;;;;;;5094022;28;20295;-47
2023/05/18 05:46:37;;;;;;;14.17;4.43;;;7.30;99.90;;;;;;5092829;28;20211;-48
2023/05/18 05:49:04;;;;;;;12.53;4.40;;;7.40;99.90;;;;;;5094339;28;20638;-47
2023/05/18 05:51:29;;;;;;;18.13;4.53;;;7.50;99.90;;;;;;5094341;28;20187;-49
2023/05/18 05:53:55;;;;;;;10.10;3.90;;;7.60;99.90;;;;;;5093982;28;20218;-48
2023/05/18 05:56:21;;;;;;;7.33;4.37;;;7.60;99.90;;;;;;5093945;28;20205;-49
2023/05/18 05:58:47;;;;;;;9.87;4.60;;;7.70;99.90;;;;;;5094063;28;20529;-47
2023/05/18 06:01:12;;;;;;;12.10;4.30;;;7.80;99.90;;;;;;5094091;28;20185;-48
2023/05/18 06:03:38;;;;;;;12.00;4.30;;;7.80;99.90;;;;;;5093643;28;20677;-48
2023/05/18 06:06:04;;;;;;;9.30;3.93;;;7.90;99.90;;;;;;5093629;28;20198;-48
2023/05/18 06:08:30;;;;;;;9.70;4.33;;;7.90;99.90;;;;;;5093901;28;20179;-49
2023/05/18 06:10:56;;;;;;;10.90;4.27;;;8.00;99.90;;;;;;5094265;28;20277;-48
2023/05/18 06:13:21;;;;;;;12.83;3.87;;;8.10;99.90;;;;;;5093588;28;20194;-49
2023/05/18 06:15:47;;;;;;;13.63;4.07;;;8.20;99.90;;;;;;5093738;28;20261;-47
2023/05/18 06:18:13;;;;;;;9.67;3.90;;;8.40;99.90;;;;;;5093588;28;20171;-48
2023/05/18 06:20:38;;;;;;;13.83;4.20;;;8.50;99.90;;;;;;5093921;28;20257;-47
2023/05/18 06:23:04;;;;;;;9.67;4.10;;;8.60;99.90;;;;;;5093554;28;20195;-49
2023/05/18 06:25:30;;;;;;;8.53;4.00;;;8.70;99.90;;;;;;5093668;28;20203;-49
2023/05/18 06:27:56;;;;;;;11.60;3.70;;;8.80;99.90;;;;;;5094722;28;20580;-48
2023/05/18 06:30:21;;;;;;;11.50;3.87;;;8.90;99.90;;;;;;5094830;28;20195;-49
2023/05/18 06:32:47;;;;;;;9.03;3.87;;;9.00;99.90;;;;;;5094105;28;20201;-49
2023/05/18 06:35:13;;;;;;;11.53;3.87;;;9.10;99.90;;;;;;5094002;28;20177;-49
2023/05/18 06:37:38;;;;;;;8.47;4.07;;;9.20;99.90;;;;;;5093647;28;20252;-48
2023/05/18 06:40:06;;;;;;;16.87;4.77;;;9.40;99.90;;;;;;5093244;28;20557;-50
2023/05/18 06:42:32;;;;;;;11.77;3.90;;;9.60;99.90;;;;;;5091995;28;20677;-48
2023/05/18 06:44:58;;;;;;;13.50;3.87;;;9.60;99.90;;;;;;5093571;28;20177;-49
2023/05/18 06:47:24;;;;;;;11.90;3.97;;;9.70;99.90;;;;;;5093483;28;20623;-50
2023/05/18 06:49:50;;;;;;;10.50;3.70;;;9.90;99.90;;;;;;5092032;28;20178;-51
2023/05/18 06:52:15;;;;;;;10.90;3.90;;;10.00;99.90;;;;;;5093399;28;20183;-48
2023/05/18 06:54:42;;;;;;;6.50;3.80;;;10.30;99.90;;;;;;5093310;28;20638;-50
2023/05/18 06:57:08;;;;;;;9.00;4.73;;;10.40;99.90;;;;;;5093148;28;20189;-49
2023/05/18 06:59:33;;;;;;;8.37;3.97;;;10.60;99.90;;;;;;5093537;28;20196;-50
2023/05/18 07:01:59;;;;;;;9.70;4.07;;;10.60;99.90;;;;;;5093313;28;20643;-51
2023/05/18 07:04:25;;;;;;;10.47;3.73;;;10.70;99.90;;;;;;5093019;28;20199;-51
2023/05/18 07:06:52;;;;;;;10.87;4.27;;;10.70;99.90;;;;;;5091801;28;20282;-50
2023/05/18 07:09:18;;;;;;;10.07;4.10;;;10.90;99.90;;;;;;5093943;28;20364;-51
2023/05/18 07:11:44;;;;;;;10.87;3.60;;;11.10;99.90;;;;;;5093503;28;20760;-49
2023/05/18 07:14:10;;;;;;;7.47;3.70;;;11.30;99.90;;;;;;5093091;28;20184;-51
2023/05/18 07:16:36;;;;;;;5.70;3.90;;;11.40;99.90;;;;;;5093685;28;20183;-50
2023/05/18 07:19:03;;;;;;;10.63;3.87;;;11.60;99.90;;;;;;5093063;28;20201;-51
2023/05/18 07:21:30;;;;;;;9.57;3.57;;;11.80;99.90;;;;;;5091775;28;20175;-50
2023/05/18 07:23:55;;;;;;;9.40;4.27;;;11.90;99.90;;;;;;5092125;28;20607;-51
2023/05/18 07:26:21;;;;;;;15.00;4.37;;;12.10;99.90;;;;;;5092906;28;20200;-51
2023/05/18 07:28:47;;;;;;;11.93;4.17;;;12.00;99.90;;;;;;5093092;28;20255;-50
2023/05/18 07:31:15;;;;;;;8.63;4.13;;;12.00;99.90;;;;;;5096297;28;20179;-51
2023/05/18 07:33:41;;;;;;;9.90;3.90;;;12.10;99.90;;;;;;5095294;28;20682;-51
2023/05/18 07:36:07;;;;;;;12.93;4.40;;;12.10;99.90;;;;;;5096655;28;20261;-50
2023/05/18 07:38:32;;;;;;;12.97;4.10;;;12.30;99.90;;;;;;5096846;28;20208;-49
2023/05/18 07:40:59;;;;;;;10.90;3.53;;;12.40;99.90;;;;;;5096523;28;20260;-51
2023/05/18 07:43:24;;;;;;;11.27;4.37;;;12.60;99.90;;;;;;5096560;28;20202;-49
2023/05/18 07:45:50;;;;;;;8.13;3.80;;;13.00;99.90;;;;;;5095404;28;20183;-51
2023/05/18 07:48:16;;;;;;;14.03;3.47;;;13.10;99.90;;;;;;5096478;28;20179;-50
2023/05/18 07:50:41;;;;;;;11.13;3.90;;;13.30;99.90;;;;;;5096790;28;20214;-51
2023/05/18 07:53:07;;;;;;;12.73;4.53;;;13.10;99.90;;;;;;5078527;28;20351;-51
2023/05/18 07:55:33;;;;;;;16.93;3.80;;;13.00;99.90;;;;;;5096545;28;20198;-51
2023/05/18 07:57:59;;;;;;;7.57;3.63;;;12.90;99.90;;;;;;5096588;28;20175;-52
2023/05/18 08:00:25;;;;;;;9.67;3.67;;;12.90;99.90;;;;;;5096541;28;20186;-51
2023/05/18 08:02:51;;;;;;;10.60;4.00;;;12.80;99.90;;;;;;5096018;28;20203;-52
2023/05/18 08:05:17;;;;;;;8.03;3.10;;;12.80;99.90;;;;;;5095174;28;20182;-52
2023/05/18 08:07:43;;;;;;;9.67;3.30;;;13.00;99.90;;;;;;5096652;28;20199;-52
2023/05/18 08:10:10;;;;;;;9.40;3.80;;;13.00;99.90;;;;;;5095922;28;20171;-50
2023/05/18 08:12:35;;;;;;;9.60;3.70;;;13.00;99.90;;;;;;5096070;28;20207;-51
2023/05/18 08:15:01;;;;;;;10.40;3.50;;;13.00;99.90;;;;;;5095866;28;20286;-51
2023/05/18 08:17:26;;;;;;;15.70;3.90;;;13.10;99.90;;;;;;5096063;28;20206;-51
2023/05/18 08:19:54;;;;;;;7.60;3.17;;;13.10;99.90;;;;;;5096030;28;20261;-52
2023/05/18 08:22:20;;;;;;;9.70;3.50;;;13.30;99.90;;;;;;5095618;28;20190;-52
2023/05/18 08:24:45;;;;;;;9.83;3.57;;;13.50;99.90;;;;;;5095934;28;20183;-50
2023/05/18 08:27:11;;;;;;;8.50;3.60;;;13.80;99.90;;;;;;5095461;28;20210;-51
2023/05/18 08:29:36;;;;;;;13.47;3.67;;;14.00;99.90;;;;;;5095771;28;20175;-51
2023/05/18 08:32:05;;;;;;;12.50;3.67;;;14.20;99.90;;;;;;5095775;28;20182;-51
2023/05/18 08:34:31;;;;;;;10.33;3.80;;;14.30;99.90;;;;;;5095412;28;20218;-52
2023/05/18 08:36:57;;;;;;;13.33;3.83;;;14.60;99.90;;;;;;5095419;28;20256;-51
2023/05/18 08:39:23;;;;;;;8.57;3.97;;;14.70;99.90;;;;;;5095349;28;20198;-51
2023/05/18 08:42:06;;;;;;;7.27;2.93;;;14.70;99.90;;;;;;5094389;28;20189;-50
2023/05/18 08:44:44;;;;;;;6.73;3.00;;;14.50;99.90;;;;;;5095385;28;20187;-52
2023/05/18 08:47:12;;;;;;;10.80;3.53;;;14.50;99.90;;;;;;5095153;28;20654;-51
2023/05/18 08:49:41;;;;;;;9.50;3.60;;;14.80;99.90;;;;;;5095241;28;20171;-51
2023/05/18 08:52:07;;;;;;;10.53;3.67;;;15.10;99.90;;;;;;5095067;28;20187;-51
2023/05/18 08:54:35;;;;;;;8.23;2.87;;;15.20;99.90;;;;;;5094969;28;20274;-51
2023/05/18 08:57:05;;;;;;;13.00;3.33;;;15.20;99.90;;;;;;5094905;28;20175;-51
2023/05/18 08:59:35;;;;;;;6.60;3.63;;;14.90;99.90;;;;;;5094958;28;20257;-52
2023/05/18 09:02:00;;;;;;;9.53;2.90;;;14.70;99.90;;;;;;5094891;28;20245;-50
2023/05/18 09:04:26;;;;;;;9.03;3.47;;;14.60;99.90;;;;;;5094871;28;20208;-51
2023/05/18 09:06:55;;;;;;;7.77;3.20;;;14.60;99.90;;;;;;5094973;28;20202;-51
2023/05/18 09:09:22;;;;;;;10.63;3.37;;;14.70;99.90;;;;;;5095017;28;20174;-50
2023/05/18 09:11:49;;;;;;;4.93;3.07;;;14.80;99.90;;;;;;5094630;28;20202;-51
2023/05/18 09:14:15;;;;;;;11.30;2.90;;;15.00;99.90;;;;;;5094534;28;20187;-52
2023/05/18 09:16:40;;;;;;;7.87;2.90;;;15.30;99.90;;;;;;5094623;28;20239;-51
2023/05/18 09:19:06;;;;;;;6.40;3.23;;;15.40;99.90;;;;;;5094849;28;20182;-52
2023/05/18 09:21:32;;;;;;;7.70;3.47;;;15.50;99.90;;;;;;5094540;28;20698;-51
2023/05/18 09:23:59;;;;;;;5.77;2.83;;;15.40;99.90;;;;;;5094520;28;20202;-51
2023/05/18 09:26:25;;;;;;;9.00;3.97;;;15.20;99.90;;;;;;5094379;28;20194;-51
2023/05/18 09:28:52;;;;;;;14.27;4.27;;;14.90;99.90;;;;;;5094681;28;20578;-50
2023/05/18 09:31:19;;;;;;;8.50;3.13;;;14.60;99.90;;;;;;5094649;28;20178;-51
2023/05/18 09:33:46;;;;;;;10.73;3.73;;;14.70;99.90;;;;;;5094125;28;20331;-50
2023/05/18 09:36:14;;;;;;;8.77;3.50;;;15.00;99.90;;;;;;5094308;28;20182;-50
2023/05/18 09:38:46;;;;;;;7.07;3.17;;;15.20;99.90;;;;;;5094092;28;20182;-52
2023/05/18 09:41:16;;;;;;;6.97;3.20;;;15.20;99.90;;;;;;5094232;28;20167;-51
2023/05/18 09:43:43;;;;;;;9.17;3.20;;;15.10;99.90;;;;;;5094313;28;20197;-52
2023/05/18 09:46:10;;;;;;;7.07;2.93;;;15.10;99.90;;;;;;5094289;28;20534;-51
2023/05/18 09:48:39;;;;;;;9.77;3.17;;;15.00;99.90;;;;;;5094287;28;20183;-52
2023/05/18 09:51:05;;;;;;;8.57;2.90;;;14.90;99.90;;;;;;5094030;28;20199;-52
2023/05/18 09:53:34;;;;;;;6.30;2.63;;;15.00;99.90;;;;;;5093477;28;20198;-52
2023/05/18 09:56:04;;;;;;;9.07;2.90;;;15.20;99.90;;;;;;5093855;28;20228;-51
2023/05/18 09:58:33;;;;;;;5.03;2.70;;;15.30;99.90;;;;;;5093764;28;20654;-51
2023/05/18 10:01:02;;;;;;;12.63;3.27;;;15.30;99.90;;;;;;5093853;28;20179;-52
2023/05/18 10:03:32;;;;;;;8.70;2.93;;;15.20;99.90;;;;;;5093702;28;20207;-50
2023/05/18 10:06:05;;;;;;;9.13;3.00;;;15.20;99.90;;;;;;5093916;28;20202;-51
2023/05/18 10:08:32;;;;;;;6.20;3.07;;;15.10;99.90;;;;;;5093923;28;20228;-51
2023/05/18 10:10:58;;;;;;;8.67;3.07;;;15.40;99.90;;;;;;5093920;28;20186;-51
2023/05/18 10:13:25;;;;;;;6.43;2.90;;;15.60;99.90;;;;;;5093880;28;20203;-51
2023/05/18 10:15:54;;;;;;;8.10;3.10;;;15.60;99.90;;;;;;5093594;28;20166;-50
2023/05/18 10:18:21;;;;;;;8.80;3.13;;;15.50;99.90;;;;;;5093636;28;20171;-50
2023/05/18 10:20:48;;;;;;;5.83;3.53;;;15.40;99.90;;;;;;5094097;28;20171;-51
2023/05/18 10:23:14;;;;;;;15.67;3.67;;;15.30;99.90;;;;;;5093440;28;20195;-52
2023/05/18 10:25:43;;;;;;;6.90;2.97;;;15.20;99.90;;;;;;5093538;28;20178;-52
2023/05/18 10:28:10;;;;;;;8.13;3.57;;;15.30;99.90;;;;;;5093454;28;20182;-52
2023/05/18 10:30:39;;;;;;;8.83;3.40;;;15.40;99.90;;;;;;5094530;28;20175;-50
2023/05/18 10:33:05;;;;;;;12.40;2.93;;;15.60;99.90;;;;;;5094397;28;20203;-50
2023/05/18 10:35:32;;;;;;;7.60;3.23;;;15.80;99.90;;;;;;5094387;28;20175;-50
2023/05/18 10:37:58;;;;;;;8.97;2.93;;;16.00;99.90;;;;;;5094032;28;20163;-51
2023/05/18 10:40:27;;;;;;;9.00;3.30;;;15.90;99.90;;;;;;5093285;28;20236;-52
2023/05/18 10:42:55;;;;;;;11.37;3.13;;;15.80;99.90;;;;;;5093217;28;20198;-51
2023/05/18 10:45:22;;;;;;;9.47;2.90;;;15.70;99.90;;;;;;5093698;28;20508;-51
2023/05/18 10:47:53;;;;;;;4.83;2.47;;;15.80;99.90;;;;;;5093798;28;20222;-51
2023/05/18 10:50:21;;;;;;;12.47;2.87;;;15.70;99.90;;;;;;5093558;28;20209;-52
2023/05/18 10:52:47;;;;;;;10.33;2.80;;;15.80;99.90;;;;;;5093149;28;20285;-51
2023/05/18 10:55:14;;;;;;;7.37;3.23;;;15.80;99.90;;;;;;5093107;28;20171;-50
2023/05/18 10:57:45;;;;;;;6.40;2.90;;;16.10;99.90;;;;;;5093423;28;20179;-50
2023/05/18 11:00:12;;;;;;;7.30;3.10;;;16.20;99.90;;;;;;5093464;28;20175;-51
2023/05/18 11:02:41;;;;;;;7.10;3.23;;;16.10;99.90;;;;;;5093130;28;20202;-51
2023/05/18 11:05:08;;;;;;;6.23;3.30;;;16.10;99.90;;;;;;5094626;28;20186;-50
2023/05/18 11:07:34;;;;;;;7.53;2.77;;;16.10;99.90;;;;;;5097021;28;20247;-51
2023/05/18 11:10:02;;;;;;;8.97;3.10;;;16.00;99.90;;;;;;5097245;28;20178;-52
2023/05/18 11:12:31;;;;;;;6.90;2.97;;;16.10;99.90;;;;;;5097445;28;20163;-51
2023/05/18 11:14:57;;;;;;;7.20;2.97;;;16.20;99.90;;;;;;5097323;28;20182;-52
2023/05/18 11:17:28;;;;;;;12.23;3.57;;;16.10;99.90;;;;;;5097155;28;20255;-50
2023/05/18 11:20:06;;;;;;;7.03;3.00;;;16.20;99.90;;;;;;5096860;28;20201;-50
2023/05/18 11:22:52;;;;;;;8.63;3.03;;;16.50;99.90;;;;;;5096806;28;20697;-51
2023/05/18 11:25:26;;;;;;;9.67;3.30;;;16.60;99.90;;;;;;5096934;28;20163;-50
2023/05/18 11:27:55;;;;;;;6.50;2.97;;;16.60;99.90;;;;;;5096547;28;20191;-50
2023/05/18 11:30:35;;;;;;;8.67;3.10;;;16.60;99.90;;;;;;5096917;28;20178;-51
2023/05/18 11:33:24;;;;;;;9.07;3.60;;;16.60;99.90;;;;;;5096829;28;20233;-50
2023/05/18 11:35:54;;;;;;;7.63;2.93;;;16.60;99.90;;;;;;5096510;28;20647;-50
2023/05/18 11:38:21;;;;;;;7.27;2.93;;;16.60;99.90;;;;;;5096493;28;20658;-50
2023/05/18 11:40:48;;;;;;;7.00;2.87;;;16.60;99.90;;;;;;5096372;28;20191;-51
2023/05/18 11:43:24;;;;;;;8.77;2.87;;;16.70;99.90;;;;;;5096421;28;20266;-51
2023/05/18 11:45:53;;;;;;;6.93;3.17;;;16.80;99.90;;;;;;5096712;28;20254;-50
2023/05/18 11:48:26;;;;;;;6.10;2.50;;;16.90;99.90;;;;;;5096649;28;20181;-52
2023/05/18 11:50:56;;;;;;;7.33;3.33;;;17.00;99.90;;;;;;5096342;28;20171;-51
2023/05/18 11:53:26;;;;;;;8.07;3.40;;;17.00;99.90;;;;;;5096298;28;20190;-51
2023/05/18 11:55:55;;;;;;;6.83;3.30;;;17.10;99.90;;;;;;5096437;28;20177;-51
2023/05/18 11:58:24;;;;;;;9.30;3.27;;;17.10;99.90;;;;;;5096112;28;20659;-51
2023/05/18 12:00:50;;;;;;;7.53;2.87;;;17.00;99.90;;;;;;5096159;28;20533;-51
2023/05/18 12:03:18;;;;;;;7.23;3.00;;;16.90;99.90;;;;;;5096024;28;20197;-51
2023/05/18 12:05:48;;;;;;;8.13;2.83;;;17.00;99.90;;;;;;5096270;28;20175;-50
2023/05/18 12:08:19;;;;;;;6.60;2.93;;;17.00;99.90;;;;;;5096482;28;20191;-50
2023/05/18 12:10:47;;;;;;;8.27;3.10;;;17.10;99.90;;;;;;5096359;28;20533;-50
2023/05/18 12:13:16;;;;;;;9.30;3.07;;;17.10;99.90;;;;;;5096112;28;20557;-51
2023/05/18 12:15:43;;;;;;;9.03;3.30;;;17.10;99.90;;;;;;5095861;28;20231;-49
2023/05/18 12:18:09;;;;;;;5.90;3.10;;;17.20;99.90;;;;;;5095809;28;20209;-49
2023/05/18 12:20:38;;;;;;;6.03;2.67;;;17.10;99.90;;;;;;5095929;28;20587;-50
2023/05/18 12:23:04;;;;;;;7.67;2.83;;;17.30;99.90;;;;;;5096422;28;20203;-46
2023/05/18 12:25:30;;;;;;;6.37;3.33;;;17.50;99.90;;;;;;5095878;28;20231;-48
2023/05/18 12:27:55;;;;;;;10.07;3.40;;;17.70;99.90;;;;;;5095489;28;20679;-47
2023/05/18 12:30:22;;;;;;;6.87;2.97;;;17.70;99.90;;;;;;5095541;28;20186;-47
2023/05/18 12:32:51;;;;;;;7.40;3.10;;;17.80;99.90;;;;;;5095294;28;20220;-47
2023/05/18 12:35:20;;;;;;;10.23;3.13;;;17.90;99.90;;;;;;5095454;28;20586;-48
2023/05/18 12:37:46;;;;;;;6.93;3.17;;;17.60;99.90;;;;;;5095388;28;20179;-47
2023/05/18 12:40:16;;;;;;;10.23;2.73;;;17.50;99.90;;;;;;5095149;28;20195;-48
2023/05/18 12:42:57;;;;;;;10.60;3.40;;;17.40;99.90;;;;;;5095466;28;20234;-47
2023/05/18 12:45:26;;;;;;;6.43;2.83;;;17.60;99.90;;;;;;5095276;28;20254;-48
2023/05/18 12:47:55;;;;;;;6.90;2.67;;;17.70;99.90;;;;;;5095154;28;20564;-47